createdAt,value
2023-02-09T00:03:18.988Z,57.65
2023-02-09T00:07:22.393Z,58.41
2023-02-09T00:11:48.272Z,58.07
2023-02-09T00:15:55.019Z,57.62
2023-02-09T00:19:58.134Z,57.95
2023-02-09T00:24:02.658Z,57.79
2023-02-09T00:28:06.694Z,57.77
2023-02-09T00:32:11.303Z,57.91
2023-02-09T00:36:16.735Z,58.25
2023-02-09T00:40:20.268Z,58.16
2023-02-09T00:44:23.752Z,58.03
2023-02-09T00:48:28.772Z,57.67
2023-02-09T00:52:31.651Z,57.98
2023-02-09T00:56:34.987Z,57.63
2023-02-09T01:00:38.508Z,57.96
2023-02-09T01:04:43.359Z,57.76
2023-02-09T01:08:48.380Z,57.79
2023-02-09T01:12:52.026Z,57.08
2023-02-09T01:16:55.173Z,57.07
2023-02-09T01:21:00.306Z,57.06
2023-02-09T01:25:03.257Z,57.26
2023-02-09T01:29:06.658Z,57.32
2023-02-09T01:33:09.860Z,56.63
2023-02-09T01:37:14.358Z,56.82
2023-02-09T01:41:17.847Z,56.58
2023-02-09T01:45:24.508Z,56.87
2023-02-09T01:49:29.419Z,57.23
2023-02-09T01:53:34.238Z,57.58
2023-02-09T01:57:41.111Z,57.60
2023-02-09T02:01:45.050Z,57.97
2023-02-09T02:05:53.875Z,57.57
2023-02-09T02:09:58.951Z,58.02
2023-02-09T02:14:02.077Z,57.87
2023-02-09T02:18:16.213Z,57.59
2023-02-09T02:22:57.119Z,58.33
2023-02-09T02:27:03.967Z,57.35
2023-02-09T02:31:34.802Z,57.65
2023-02-09T02:35:48.736Z,57.46
2023-02-09T02:40:04.691Z,58.24
2023-02-09T02:44:15.765Z,58.49
2023-02-09T02:48:26.704Z,58.01
2023-02-09T02:52:31.547Z,59.03
2023-02-09T02:56:39.562Z,58.25
2023-02-09T03:00:47.046Z,58.32
2023-02-09T03:04:54.580Z,58.72
2023-02-09T03:08:59.658Z,59.15
2023-02-09T03:13:14.330Z,59.29
2023-02-09T03:17:28.882Z,59.73
2023-02-09T03:21:43.521Z,59.57
2023-02-09T03:25:51.553Z,59.40
2023-02-09T03:29:59.394Z,59.90
2023-02-09T03:34:03.239Z,60.08
2023-02-09T03:38:07.797Z,60.72
2023-02-09T03:42:12.180Z,60.53
2023-02-09T03:46:15.584Z,60.69
2023-02-09T03:50:19.245Z,59.74
2023-02-09T03:54:22.838Z,60.01
2023-02-09T03:58:27.590Z,60.52
2023-02-09T04:02:31.447Z,59.82
2023-02-09T04:06:36.087Z,60.75
2023-02-09T04:10:39.275Z,59.93
2023-02-09T04:14:43.506Z,59.95
2023-02-09T04:18:47.650Z,60.85
2023-02-09T04:22:51.305Z,60.09
2023-02-09T04:26:54.645Z,60.60
2023-02-09T04:30:59.728Z,60.40
2023-02-09T04:35:02.881Z,60.52
2023-02-09T04:39:06.692Z,60.28
2023-02-09T04:43:09.681Z,60.61
2023-02-09T04:47:14.701Z,60.69
2023-02-09T04:51:18.212Z,60.70
2023-02-09T04:55:21.754Z,60.34
2023-02-09T04:59:39.247Z,60.20
2023-02-09T05:03:43.936Z,60.40
2023-02-09T05:07:49.951Z,60.65
2023-02-09T05:11:53.227Z,60.69
2023-02-09T05:15:57.035Z,59.39
2023-02-09T05:20:01.880Z,60.15
2023-02-09T05:24:06.122Z,59.53
2023-02-09T05:28:09.718Z,59.90
2023-02-09T05:32:13.265Z,59.20
2023-02-09T05:36:18.077Z,59.90
2023-02-09T05:40:21.355Z,59.80
2023-02-09T05:48:42.376Z,59.50
2023-02-09T05:52:47.078Z,58.80
2023-02-09T05:56:50.603Z,59.31
2023-02-09T06:00:53.488Z,59.18
2023-02-09T06:04:56.610Z,59.17
2023-02-09T06:09:01.081Z,59.19
2023-02-09T06:13:04.193Z,58.67
2023-02-09T06:17:07.572Z,58.74
2023-02-09T06:21:11.926Z,58.77
2023-02-09T06:25:16.903Z,59.51
2023-02-09T06:29:20.340Z,59.54
2023-02-09T06:33:23.656Z,58.60
2023-02-09T06:37:26.639Z,59.14
2023-02-09T06:41:31.496Z,58.85
2023-02-09T06:45:34.573Z,59.14
2023-02-09T06:49:37.845Z,58.83
2023-02-09T06:53:42.720Z,58.69
2023-02-09T06:57:47.399Z,57.54
2023-02-09T07:01:54.641Z,55.84
2023-02-09T07:06:03.445Z,56.64
2023-02-09T07:10:08.621Z,55.47
2023-02-09T07:14:13.273Z,54.47
2023-02-09T07:18:16.907Z,54.98
2023-02-09T07:22:19.981Z,53.64
2023-02-09T07:26:23.528Z,52.99
2023-02-09T07:30:28.325Z,53.36
2023-02-09T07:34:31.855Z,52.68
2023-02-09T07:38:35.352Z,52.56
2023-02-09T07:42:38.954Z,52.36
2023-02-09T07:46:43.462Z,51.22
2023-02-09T07:50:50.889Z,51.86
2023-02-09T07:54:55.347Z,51.18
2023-02-09T07:58:59.359Z,50.19
2023-02-09T08:03:05.789Z,51.75
2023-02-09T08:07:08.719Z,50.07
2023-02-09T08:11:12.710Z,50.64
2023-02-09T08:15:19.171Z,49.35
2023-02-09T08:19:26.242Z,49.80
2023-02-09T08:23:32.988Z,48.45
2023-02-09T08:27:38.114Z,48.32
2023-02-09T08:31:41.923Z,48.86
2023-02-09T08:35:47.316Z,48.86
2023-02-09T08:39:50.495Z,47.65
2023-02-09T08:43:53.794Z,47.92
2023-02-09T08:47:57.035Z,48.21
2023-02-09T08:52:01.976Z,46.01
2023-02-09T08:56:05.464Z,47.10
2023-02-09T09:00:09.278Z,44.82
2023-02-09T09:04:12.805Z,46.61
2023-02-09T09:08:17.255Z,46.73
2023-02-09T09:12:20.807Z,45.97
2023-02-09T09:16:24.447Z,44.48
2023-02-09T09:20:28.606Z,42.96
2023-02-09T09:24:33.371Z,43.98
2023-02-09T09:28:37.135Z,43.59
2023-02-09T09:32:40.678Z,41.97
2023-02-09T09:36:43.685Z,41.80
2023-02-09T09:40:48.756Z,43.07
2023-02-09T09:44:52.151Z,43.33
2023-02-09T09:48:57.628Z,41.88
2023-02-09T09:53:06.571Z,42.84
2023-02-09T09:57:21.217Z,43.35
2023-02-09T10:01:25.717Z,41.22
2023-02-09T10:05:31.147Z,40.94
2023-02-09T10:09:40.662Z,39.93
2023-02-09T10:13:49.890Z,41.83
2023-02-09T10:17:53.085Z,41.53
2023-02-09T10:21:57.123Z,41.01
2023-02-09T10:26:03.912Z,41.89
2023-02-09T10:30:21.742Z,44.70
2023-02-09T10:34:32.490Z,42.98
2023-02-09T10:38:41.212Z,39.56
2023-02-09T10:42:55.555Z,36.65
2023-02-09T10:47:14.035Z,40.18
2023-02-09T10:51:29.589Z,38.52
2023-02-09T10:55:37.870Z,38.60
2023-02-09T10:59:42.957Z,36.93
2023-02-09T11:04:08.514Z,40.34
2023-02-09T11:08:20.434Z,39.46
2023-02-09T11:12:25.245Z,37.37
2023-02-09T11:16:49.006Z,39.25
2023-02-09T11:21:00.837Z,39.08
2023-02-09T11:25:18.645Z,38.95
2023-02-09T11:29:29.886Z,40.53
2023-02-09T11:33:45.635Z,40.70
2023-02-09T11:37:59.046Z,39.55
2023-02-09T11:42:24.693Z,37.47
2023-02-09T11:46:31.300Z,38.51
2023-02-09T11:50:42.681Z,37.11
2023-02-09T11:54:51.790Z,37.22
2023-02-09T11:59:02.197Z,35.52
2023-02-09T12:03:12.746Z,35.62
2023-02-09T12:07:22.657Z,36.17
2023-02-09T12:11:41.752Z,37.11
2023-02-09T12:15:48.538Z,34.11
2023-02-09T12:19:57.533Z,36.76
2023-02-09T12:24:01.084Z,36.85
2023-02-09T12:28:34.547Z,38.27
2023-02-09T12:32:46.344Z,36.85
2023-02-09T12:37:30.466Z,36.03
2023-02-09T12:42:12.096Z,39.02
2023-02-09T12:46:47.116Z,36.91
2023-02-09T12:50:55.272Z,35.78
2023-02-09T12:54:58.751Z,36.46
2023-02-09T12:59:17.039Z,38.12
2023-02-09T13:03:24.743Z,37.56
2023-02-09T13:07:41.976Z,38.72
2023-02-09T13:11:51.023Z,36.51
2023-02-09T13:16:21.962Z,39.07
2023-02-09T13:21:00.529Z,39.42
2023-02-09T13:29:21.223Z,36.45
2023-02-09T13:33:45.784Z,39.43
2023-02-09T13:37:53.714Z,36.26
2023-02-09T13:41:57.304Z,36.29
2023-02-09T13:46:03.029Z,33.05
2023-02-09T13:50:16.670Z,36.39
2023-02-09T13:54:22.152Z,35.19
2023-02-09T13:58:28.836Z,34.72
2023-02-09T14:02:32.509Z,35.48
2023-02-09T14:06:40.708Z,35.55
2023-02-09T14:10:51.716Z,33.01
2023-02-09T14:15:16.017Z,35.10
2023-02-09T14:19:28.453Z,35.59
2023-02-09T14:23:35.524Z,33.79
2023-02-09T14:27:42.875Z,34.30
2023-02-09T14:31:49.621Z,34.29
2023-02-09T14:35:57.080Z,34.25
2023-02-09T14:40:04.704Z,35.77
2023-02-09T14:44:22.409Z,36.28
2023-02-09T14:48:26.801Z,36.24
2023-02-09T14:52:33.014Z,37.73
2023-02-09T14:56:36.520Z,35.14
2023-02-09T15:00:40.888Z,37.04
2023-02-09T15:04:44.501Z,37.06
2023-02-09T15:08:47.786Z,37.63
2023-02-09T15:12:51.262Z,34.90
2023-02-09T15:16:55.898Z,35.88
2023-02-09T15:20:59.718Z,37.65
2023-02-09T15:25:03.033Z,38.50
2023-02-09T15:29:12.238Z,39.06
2023-02-09T15:33:17.124Z,41.44
2023-02-09T15:37:24.756Z,42.15
2023-02-09T15:41:45.464Z,40.85
2023-02-09T15:46:06.186Z,39.02
2023-02-09T15:50:11.725Z,40.10
2023-02-09T15:54:19.728Z,39.83
2023-02-09T15:58:28.699Z,41.23
2023-02-09T16:02:31.953Z,41.79
2023-02-09T16:06:37.197Z,41.80
2023-02-09T16:10:41.579Z,42.93
2023-02-09T16:14:44.927Z,41.67
2023-02-09T16:18:48.427Z,43.73
2023-02-09T16:22:54.686Z,43.87
2023-02-09T16:27:01.436Z,44.39
2023-02-09T16:31:04.994Z,43.41
2023-02-09T16:35:16.553Z,44.48
2023-02-09T16:39:23.702Z,44.71
2023-02-09T16:43:26.897Z,45.92
2023-02-09T16:47:32.287Z,45.80
2023-02-09T16:51:36.301Z,46.37
2023-02-09T16:55:42.071Z,46.37
2023-02-09T16:59:45.788Z,46.86
2023-02-09T17:03:51.555Z,45.45
2023-02-09T17:07:57.869Z,46.47
2023-02-09T17:12:02.688Z,47.21
2023-02-09T17:16:09.320Z,46.70
2023-02-09T17:20:17.848Z,47.11
2023-02-09T17:24:21.906Z,46.29
2023-02-09T17:28:28.396Z,46.38
2023-02-09T17:32:32.435Z,46.79
2023-02-09T17:36:35.695Z,46.94
2023-02-09T17:40:39.258Z,46.12
2023-02-09T17:44:46.697Z,46.76
2023-02-09T17:48:50.937Z,48.28
2023-02-09T17:52:54.524Z,47.56
2023-02-09T17:56:57.506Z,48.51
2023-02-09T18:01:02.009Z,49.31
2023-02-09T18:05:05.289Z,50.08
2023-02-09T18:09:10.296Z,49.51
2023-02-09T18:13:17.631Z,49.35
2023-02-09T18:17:22.804Z,49.49
2023-02-09T18:21:26.016Z,50.34
2023-02-09T18:25:31.947Z,50.50
2023-02-09T18:29:36.830Z,50.76
2023-02-09T18:33:41.621Z,50.24
2023-02-09T18:42:06.100Z,50.36
2023-02-09T18:46:09.513Z,50.48
2023-02-09T18:50:18.631Z,50.28
2023-02-09T18:54:21.899Z,51.30
2023-02-09T18:58:25.504Z,51.35
2023-02-09T19:02:28.968Z,51.59
2023-02-09T19:06:36.009Z,50.26
2023-02-09T19:10:39.518Z,50.42
2023-02-09T19:14:44.081Z,51.45
2023-02-09T19:18:47.280Z,52.05
2023-02-09T19:22:53.153Z,52.29
2023-02-09T19:26:57.266Z,52.54
2023-02-09T19:31:00.529Z,52.52
2023-02-09T19:35:04.197Z,52.48
2023-02-09T19:39:09.125Z,53.58
2023-02-09T19:43:13.891Z,52.44
2023-02-09T19:47:17.562Z,52.99
2023-02-09T19:51:21.391Z,53.26
2023-02-09T19:55:26.618Z,53.53
2023-02-09T19:59:32.074Z,54.19
2023-02-09T20:03:35.396Z,54.77
2023-02-09T20:07:39.353Z,55.70
2023-02-09T20:11:46.658Z,55.35
2023-02-09T20:15:50.367Z,54.93
2023-02-09T20:19:53.789Z,56.17
2023-02-09T20:23:58.331Z,55.79
2023-02-09T20:28:03.259Z,54.97
2023-02-09T20:32:08.294Z,53.67
2023-02-09T20:36:11.547Z,54.63
2023-02-09T20:40:15.279Z,55.36
2023-02-09T20:44:37.085Z,55.49
2023-02-09T20:48:40.461Z,57.29
2023-02-09T20:52:45.881Z,55.12
2023-02-09T20:56:50.499Z,56.89
2023-02-09T21:00:55.276Z,57.10
2023-02-09T21:05:03.536Z,57.90
2023-02-09T21:09:08.611Z,57.70
2023-02-09T21:13:11.990Z,58.18
2023-02-09T21:17:17.201Z,56.19
2023-02-09T21:21:22.848Z,55.98
2023-02-09T21:25:28.180Z,56.07
2023-02-09T21:29:31.554Z,55.58
2023-02-09T21:33:37.835Z,55.78
2023-02-09T21:37:43.476Z,56.29
2023-02-09T21:42:04.518Z,56.41
2023-02-09T21:46:07.848Z,55.39
2023-02-09T21:50:14.044Z,55.53
2023-02-09T21:54:19.432Z,56.14
2023-02-09T21:58:23.156Z,55.57
2023-02-09T22:02:27.687Z,56.01
2023-02-09T22:06:33.484Z,56.44
2023-02-09T22:10:37.182Z,57.89
2023-02-09T22:14:40.849Z,57.39
2023-02-09T22:18:44.236Z,56.15
2023-02-09T22:22:50.356Z,55.39
2023-02-09T22:26:53.916Z,55.33
2023-02-09T22:30:57.438Z,55.73
2023-02-09T22:35:01.014Z,57.47
2023-02-09T22:39:06.670Z,57.55
2023-02-09T22:43:10.351Z,57.07
2023-02-09T22:47:14.051Z,56.83
2023-02-09T22:51:18.811Z,55.89
2023-02-09T22:55:24.347Z,56.70
2023-02-09T22:59:27.863Z,56.41
2023-02-09T23:03:31.489Z,55.78
2023-02-09T23:07:35.452Z,55.83
2023-02-09T23:11:40.687Z,56.84
2023-02-09T23:15:44.171Z,56.76
2023-02-09T23:19:47.238Z,56.39
2023-02-09T23:23:51.213Z,57.80
2023-02-09T23:27:56.455Z,56.50
2023-02-09T23:32:00.241Z,57.64
2023-02-09T23:36:24.025Z,57.10
2023-02-09T23:40:27.363Z,58.23
2023-02-09T23:44:32.270Z,58.14
2023-02-09T23:48:36.924Z,58.65
2023-02-09T23:52:40.621Z,57.89
2023-02-09T23:56:46.475Z,58.94
